KSUN/SUN METAR and TAF weather

Enter ICAO airport designator
Station Type Date Time Source
KSUN METAR 2022/06/27 15:47 UTC NOAA

KSUN 271547Z 31010KT 10SM SKC 21/04 A3034


Station Type Date Time Source
KSUN Decoded METAR 2022/06/27 15:47 UTC NOAA

Hailey, Friedman Memorial Airport, ID, United States (KSUN) 43-30N 114-18W
Jun 27, 2022 - 11:47 AM EDT / 2022.06.27 1547 UTC
Wind: from the NW (310 degrees) at 12 MPH (10 KT):0
Visibility: 10 mile(s):0
Sky conditions: clear
Temperature: 69 F (21 C)
Dew Point: 39 F (4 C)
Relative Humidity: 32%
Pressure (altimeter): 30.34 in. Hg (1027 hPa)
ob: KSUN 271547Z 31010KT 10SM SKC 21/04 A3034
cycle: 16

Station Type Date Time Source
KSUN TAF 2022/06/27 12:22 UTC NOAA

TAF KSUN 271120Z 2712/2818 32010KT P6SM FEW120
FM271600 16008KT P6SM FEW120
FM272100 23010KT P6SM SCT120
FM280300 32008KT P6SM SCT120
FM281600 16008KT P6SM BKN120
AMD LTD TO CLD VIS AND WIND TIL 271400

Example: see airport list